Terminal Aerodrome Forecast
Issued by NWS Sterling, VA

Current Version | Previous Version | Graphics & Text | Print | Product List | Glossary On
Versions: 1 2 3 4 5 6 7 8 9 10 11 12 13 14 15 16 17 18 19 20 21 22 23 24 25 26 27 28 29
000
FTUS41 KLWX 141740
TAFIAD
TAF
KIAD 141740Z 1418/1524 14005KT P6SM -SHRA OVC090
     FM150000 13004KT P6SM OVC090
     FM151100 00000KT P6SM OVC050
     FM152300 VRB03KT P6SM SCT025=

USA.gov is the U.S. government's official web portal to all federal, state and local government web resources and services.